This is the latest recevied weather packets stored in our database for station/object KC3WWU. If no packets are shown the sender has not sent any weather packets the latest 10 day(s).
| Time | Temp. | Humidity | Pressure | Rain* | Wind** | Luminosity | Snow |
|---|---|---|---|---|---|---|---|
| 1778003942 | 21.67° C | 51% | 1006.8 hPa | 0 mm | - | 209 W/m² | - |
| 1778003638 | 21.67° C | 51% | 1006.4 hPa | 0 mm | - | 315 W/m² | - |
| 1778003335 | 21.67° C | 50% | 1006.7 hPa | 0 mm | - | 218 W/m² | - |
| 1778003032 | 21.67° C | 50% | 1006.4 hPa | 0 mm | - | 238 W/m² | - |
| 1778002728 | 21.67° C | 51% | 1006.8 hPa | 0 mm | - | 372 W/m² | - |
| 1778002425 | 21.67° C | 51% | 1006.8 hPa | 0 mm | - | 180 W/m² | - |
| 1778002122 | 22.22° C | 49% | 1006.7 hPa | 0 mm | - | 308 W/m² | - |
| 1778001820 | 21.67° C | 50% | 1006.7 hPa | 0 mm | - | 519 W/m² | - |
| 1778001519 | 21.67° C | 52% | 1006.6 hPa | 0 mm | - | 210 W/m² | - |
| 1778001217 | 21.67° C | 50% | 1006.6 hPa | 0 mm | - | 175 W/m² | - |
| 1778000913 | 22.78° C | 48% | 1006.6 hPa | 0 mm | - | 247 W/m² | - |
| 1778000610 | 23.33° C | 47% | 1006.6 hPa | 0 mm | - | 860 W/m² | - |
| 1778000305 | 22.78° C | 48% | 1006.7 hPa | 0 mm | - | 815 W/m² | - |
| 1778000001 | 21.67° C | 51% | 1006.6 hPa | 0 mm | - | 448 W/m² | - |
| 1777999697 | 22.78° C | 48% | 1006.9 hPa | 0 mm | - | 231 W/m² | - |
| 1777999394 | 21.67° C | 49% | 1006.7 hPa | 0 mm | - | 849 W/m² | - |
| 1777999092 | 21.67° C | 49% | 1006.9 hPa | 0 mm | - | 256 W/m² | - |
| 1777998791 | 21.67° C | 50% | 1006.9 hPa | 0 mm | - | 412 W/m² | - |
| 1777998488 | 21.67° C | 50% | 1006.9 hPa | 0 mm | - | 815 W/m² | - |
| 1777998184 | 21.11° C | 52% | 1006.8 hPa | 0 mm | - | 370 W/m² | - |
| 1777997882 | 20.56° C | 52% | 1007.1 hPa | 0 mm | - | 832 W/m² | - |
| 1777997579 | 20° C | 54% | 1007.3 hPa | 0 mm | - | 767 W/m² | - |
| 1777997276 | 20° C | 56% | 1007 hPa | 0 mm | - | 195 W/m² | - |
| 1777996974 | 20° C | 56% | 1006.9 hPa | 0 mm | - | 184 W/m² | - |
| 1777996670 | 20° C | 56% | 1006.9 hPa | 0 mm | - | 156 W/m² | - |
* Rain latest hour (hover to see other rain measurements)
** Current wind speed in m/s (hover to see current wind gust speed)